Overview Statistics Trail Chart Weather Telemetry Raw packets
 

This is the latest recevied weather packets stored in our database for station/object PU5BHV. If no packets are shown the sender has not sent any weather packets the latest 10 day(s).

<< 45 46 47 48 49 50 51 >>
Time Temp. Humidity Pressure Rain* Wind** Luminosity Snow
1777313400 30.56° C 34% 1012 hPa 0 mm - 403 W/m² -
1777313096 30.56° C 34% 1011.9 hPa 0 mm - 423 W/m² -
1777312792 30.56° C 35% 1012 hPa 0 mm - 413 W/m² -
1777312489 30.56° C 35% 1012.1 hPa 0 mm - 400 W/m² -
1777312186 30.56° C 35% 1012.3 hPa 0 mm - 400 W/m² -
1777311884 30° C 36% 1012.1 hPa 0 mm - 410 W/m² -
1777311580 30.56° C 34% 1012 hPa 0 mm - 452 W/m² -
1777311278 30.56° C 36% 1012.1 hPa 0 mm - 459 W/m² -
1777310975 30.56° C 38% 1012.1 hPa 0 mm - 482 W/m² -
1777310673 30.56° C 40% 1012.2 hPa 0 mm - 484 W/m² -
1777310370 30° C 42% 1012.1 hPa 0 mm - 465 W/m² -
1777310067 30° C 43% 1012.2 hPa 0 mm - 472 W/m² -
1777309765 30.56° C 45% 1012.3 hPa 0 mm - 516 W/m² -
1777309463 30° C 44% 1012.4 hPa 0 mm - 530 W/m² -
1777309159 29.44° C 43% 1012.6 hPa 0 mm - 536 W/m² -
1777308858 29.44° C 44% 1012.4 hPa 0 mm - 536 W/m² -
1777308553 30° C 45% 1012.6 hPa 0 mm - 557 W/m² -
1777308249 29.44° C 46% 1012.7 hPa 0 mm - 521 W/m² -
1777307944 29.44° C 44% 1012.7 hPa 0 mm - 563 W/m² -
1777307642 28.89° C 41% 1012.8 hPa 0 mm - 596 W/m² -
1777307339 28.89° C 44% 1012.8 hPa 0 mm - 570 W/m² -
1777307036 28.89° C 44% 1013 hPa 0 mm - 593 W/m² -
1777306733 28.89° C 46% 1013 hPa 0 mm - 592 W/m² -
1777306431 28.89° C 47% 1012.9 hPa 0 mm - 603 W/m² -
1777306131 28.89° C 47% 1013.1 hPa 0 mm - 627 W/m² -

* Rain latest hour (hover to see other rain measurements)
** Current wind speed in m/s (hover to see current wind gust speed)